sensor_id;sensor_type;location;lat;lon;timestamp;pressure;altitude;pressure_sealevel;temperature;humidity
11099;BME280;12223;42.650;23.364;2023-02-19T00:00:10;95005.47;;;7.07;71.78
11099;BME280;12223;42.650;23.364;2023-02-19T00:02:41;95024.28;;;6.90;71.81
11099;BME280;12223;42.650;23.364;2023-02-19T00:05:09;95015.91;;;6.73;73.68
11099;BME280;12223;42.650;23.364;2023-02-19T00:07:36;95001.66;;;6.82;73.49
11099;BME280;12223;42.650;23.364;2023-02-19T00:10:03;95000.78;;;6.75;73.76
11099;BME280;12223;42.650;23.364;2023-02-19T00:12:30;95013.09;;;6.74;74.68
11099;BME280;12223;42.650;23.364;2023-02-19T00:14:56;95010.97;;;6.63;75.71
11099;BME280;12223;42.650;23.364;2023-02-19T00:17:23;95015.59;;;6.61;76.21
11099;BME280;12223;42.650;23.364;2023-02-19T00:19:51;95003.22;;;6.55;76.20
11099;BME280;12223;42.650;23.364;2023-02-19T00:22:18;94954.28;;;6.20;76.87
11099;BME280;12223;42.650;23.364;2023-02-19T00:24:45;95010.75;;;6.37;76.32
11099;BME280;12223;42.650;23.364;2023-02-19T00:27:11;95001.22;;;5.93;81.29
11099;BME280;12223;42.650;23.364;2023-02-19T00:29:38;95002.91;;;6.22;81.52
11099;BME280;12223;42.650;23.364;2023-02-19T00:32:05;94999.44;;;5.64;85.75
11099;BME280;12223;42.650;23.364;2023-02-19T00:34:32;94998.13;;;6.26;84.46
11099;BME280;12223;42.650;23.364;2023-02-19T00:37:00;94991.78;;;6.20;82.44
11099;BME280;12223;42.650;23.364;2023-02-19T00:39:27;94952.22;;;5.94;80.06
11099;BME280;12223;42.650;23.364;2023-02-19T00:41:53;94998.09;;;6.04;80.70
11099;BME280;12223;42.650;23.364;2023-02-19T00:44:20;94989.19;;;5.84;82.97
11099;BME280;12223;42.650;23.364;2023-02-19T00:46:47;94981.13;;;5.86;84.25
11099;BME280;12223;42.650;23.364;2023-02-19T00:49:17;94990.63;;;6.23;82.63
11099;BME280;12223;42.650;23.364;2023-02-19T00:51:45;94976.06;;;5.99;82.79
11099;BME280;12223;42.650;23.364;2023-02-19T00:54:14;94984.03;;;5.76;83.87
11099;BME280;12223;42.650;23.364;2023-02-19T00:56:41;94981.31;;;5.84;84.88
11099;BME280;12223;42.650;23.364;2023-02-19T00:59:07;94969.38;;;5.82;85.94
11099;BME280;12223;42.650;23.364;2023-02-19T01:01:34;94976.31;;;5.53;86.74
11099;BME280;12223;42.650;23.364;2023-02-19T01:04:01;94967.00;;;5.51;85.33
11099;BME280;12223;42.650;23.364;2023-02-19T01:06:28;94965.69;;;5.40;87.24
11099;BME280;12223;42.650;23.364;2023-02-19T01:08:57;94979.94;;;5.38;90.39
11099;BME280;12223;42.650;23.364;2023-02-19T01:11:25;94984.75;;;5.34;90.07
11099;BME280;12223;42.650;23.364;2023-02-19T01:13:56;94976.53;;;5.22;92.08
11099;BME280;12223;42.650;23.364;2023-02-19T01:16:23;94962.47;;;5.74;90.89
11099;BME280;12223;42.650;23.364;2023-02-19T01:18:50;94958.72;;;5.83;88.70
11099;BME280;12223;42.650;23.364;2023-02-19T01:21:18;94961.97;;;5.85;86.99
11099;BME280;12223;42.650;23.364;2023-02-19T01:23:46;94965.28;;;5.73;87.29
11099;BME280;12223;42.650;23.364;2023-02-19T01:26:15;94964.75;;;5.62;89.03
11099;BME280;12223;42.650;23.364;2023-02-19T01:28:43;94971.94;;;5.90;88.58
11099;BME280;12223;42.650;23.364;2023-02-19T01:31:12;94976.06;;;5.99;85.33
11099;BME280;12223;42.650;23.364;2023-02-19T01:33:39;94972.75;;;5.90;84.51
11099;BME280;12223;42.650;23.364;2023-02-19T01:36:06;94986.56;;;5.99;85.02
11099;BME280;12223;42.650;23.364;2023-02-19T01:38:33;95003.47;;;5.96;86.71
11099;BME280;12223;42.650;23.364;2023-02-19T01:41:02;94982.13;;;5.85;87.64
11099;BME280;12223;42.650;23.364;2023-02-19T01:43:30;94987.19;;;5.86;86.74
11099;BME280;12223;42.650;23.364;2023-02-19T01:45:59;94993.44;;;5.71;86.42
11099;BME280;12223;42.650;23.364;2023-02-19T01:48:29;95013.91;;;5.46;87.51
11099;BME280;12223;42.650;23.364;2023-02-19T01:51:02;95025.13;;;5.54;88.63
11099;BME280;12223;42.650;23.364;2023-02-19T01:53:34;95032.97;;;5.54;89.78
11099;BME280;12223;42.650;23.364;2023-02-19T01:56:04;95011.38;;;5.38;91.35
11099;BME280;12223;42.650;23.364;2023-02-19T01:58:34;95013.25;;;5.44;91.89
11099;BME280;12223;42.650;23.364;2023-02-19T02:01:04;95027.81;;;5.46;90.76
11099;BME280;12223;42.650;23.364;2023-02-19T02:03:32;94998.19;;;5.02;93.20
11099;BME280;12223;42.650;23.364;2023-02-19T02:06:01;95012.19;;;5.09;92.34
11099;BME280;12223;42.650;23.364;2023-02-19T02:08:30;95009.22;;;4.97;94.95
11099;BME280;12223;42.650;23.364;2023-02-19T02:11:18;95000.13;;;4.70;97.81
11099;BME280;12223;42.650;23.364;2023-02-19T02:13:45;95002.97;;;4.83;96.60
11099;BME280;12223;42.650;23.364;2023-02-19T02:16:21;95017.22;;;4.96;96.31
11099;BME280;12223;42.650;23.364;2023-02-19T02:18:58;95002.88;;;5.06;97.20
11099;BME280;12223;42.650;23.364;2023-02-19T02:21:34;94994.66;;;4.95;98.13
11099;BME280;12223;42.650;23.364;2023-02-19T02:24:11;95013.56;;;5.05;96.49
11099;BME280;12223;42.650;23.364;2023-02-19T02:26:55;95017.22;;;4.96;97.28
11099;BME280;12223;42.650;23.364;2023-02-19T02:32:30;95018.25;;;5.39;93.19
11099;BME280;12223;42.650;23.364;2023-02-19T02:35:01;95013.63;;;5.41;93.78
11099;BME280;12223;42.650;23.364;2023-02-19T02:37:32;95010.81;;;5.57;92.04
11099;BME280;12223;42.650;23.364;2023-02-19T02:40:01;95012.25;;;5.74;90.32
11099;BME280;12223;42.650;23.364;2023-02-19T02:42:29;95010.88;;;5.78;88.80
11099;BME280;12223;42.650;23.364;2023-02-19T02:44:57;95010.22;;;5.55;90.96
11099;BME280;12223;42.650;23.364;2023-02-19T02:47:46;95001.56;;;5.76;91.13
11099;BME280;12223;42.650;23.364;2023-02-19T02:50:17;94999.78;;;5.91;87.48
11099;BME280;12223;42.650;23.364;2023-02-19T02:52:47;94998.41;;;5.80;89.02
11099;BME280;12223;42.650;23.364;2023-02-19T02:55:35;94992.63;;;5.85;88.06
11099;BME280;12223;42.650;23.364;2023-02-19T02:58:04;94994.75;;;6.11;86.30
11099;BME280;12223;42.650;23.364;2023-02-19T03:00:31;94997.63;;;6.16;84.54
11099;BME280;12223;42.650;23.364;2023-02-19T03:03:26;94997.81;;;6.35;83.89
11099;BME280;12223;42.650;23.364;2023-02-19T03:05:56;95008.59;;;6.47;81.68
11099;BME280;12223;42.650;23.364;2023-02-19T03:08:27;94999.28;;;6.02;82.93
11099;BME280;12223;42.650;23.364;2023-02-19T03:10:59;95002.91;;;6.01;86.27
11099;BME280;12223;42.650;23.364;2023-02-19T03:13:50;95009.06;;;6.29;82.71
11099;BME280;12223;42.650;23.364;2023-02-19T03:16:37;95015.59;;;6.19;81.85
11099;BME280;12223;42.650;23.364;2023-02-19T03:19:24;95025.00;;;5.92;84.22
11099;BME280;12223;42.650;23.364;2023-02-19T03:21:58;95019.97;;;5.61;88.43
11099;BME280;12223;42.650;23.364;2023-02-19T03:24:28;95037.75;;;5.51;89.87
11099;BME280;12223;42.650;23.364;2023-02-19T03:27:15;95032.41;;;5.88;90.44
11099;BME280;12223;42.650;23.364;2023-02-19T03:29:46;95035.75;;;5.68;86.59
11099;BME280;12223;42.650;23.364;2023-02-19T03:32:18;95046.84;;;5.70;85.86
11099;BME280;12223;42.650;23.364;2023-02-19T03:34:51;95037.47;;;5.60;88.81
11099;BME280;12223;42.650;23.364;2023-02-19T03:37:23;95046.56;;;4.91;91.84
11099;BME280;12223;42.650;23.364;2023-02-19T03:39:52;95056.97;;;5.14;93.07
11099;BME280;12223;42.650;23.364;2023-02-19T03:42:28;95063.94;;;5.21;91.93
11099;BME280;12223;42.650;23.364;2023-02-19T03:45:08;95062.97;;;5.00;93.50
11099;BME280;12223;42.650;23.364;2023-02-19T03:47:42;95060.47;;;5.06;95.48
11099;BME280;12223;42.650;23.364;2023-02-19T03:50:17;95066.13;;;4.95;96.87
11099;BME280;12223;42.650;23.364;2023-02-19T03:52:52;95064.56;;;5.09;97.46
11099;BME280;12223;42.650;23.364;2023-02-19T03:55:25;95066.91;;;5.18;95.53
11099;BME280;12223;42.650;23.364;2023-02-19T03:57:58;95068.41;;;5.13;94.43
11099;BME280;12223;42.650;23.364;2023-02-19T04:00:31;95065.53;;;5.08;94.96
11099;BME280;12223;42.650;23.364;2023-02-19T04:03:06;95063.47;;;5.03;96.41
11099;BME280;12223;42.650;23.364;2023-02-19T04:05:40;95076.38;;;4.67;97.74
11099;BME280;12223;42.650;23.364;2023-02-19T04:08:12;95085.13;;;4.74;99.21
11099;BME280;12223;42.650;23.364;2023-02-19T04:10:40;95078.69;;;4.85;100.00
11099;BME280;12223;42.650;23.364;2023-02-19T04:13:14;95077.56;;;4.79;100.00
11099;BME280;12223;42.650;23.364;2023-02-19T04:15:44;95087.16;;;4.64;99.65
11099;BME280;12223;42.650;23.364;2023-02-19T04:18:14;95080.03;;;4.35;100.00
11099;BME280;12223;42.650;23.364;2023-02-19T04:20:45;95082.19;;;4.24;100.00
11099;BME280;12223;42.650;23.364;2023-02-19T04:23:15;95091.00;;;4.31;100.00
11099;BME280;12223;42.650;23.364;2023-02-19T04:25:46;95086.81;;;4.44;100.00
11099;BME280;12223;42.650;23.364;2023-02-19T04:28:14;95087.09;;;4.04;100.00
11099;BME280;12223;42.650;23.364;2023-02-19T04:30:44;95089.84;;;4.02;100.00
11099;BME280;12223;42.650;23.364;2023-02-19T04:33:11;95088.66;;;4.13;100.00
11099;BME280;12223;42.650;23.364;2023-02-19T04:35:38;95092.63;;;4.01;100.00
11099;BME280;12223;42.650;23.364;2023-02-19T04:38:06;95092.22;;;3.89;100.00
11099;BME280;12223;42.650;23.364;2023-02-19T04:40:33;95097.19;;;3.68;100.00
11099;BME280;12223;42.650;23.364;2023-02-19T04:43:00;95084.63;;;3.72;100.00
11099;BME280;12223;42.650;23.364;2023-02-19T04:45:26;95082.97;;;3.71;100.00
11099;BME280;12223;42.650;23.364;2023-02-19T04:47:53;95089.47;;;3.83;100.00
11099;BME280;12223;42.650;23.364;2023-02-19T04:50:20;95094.69;;;3.83;100.00
11099;BME280;12223;42.650;23.364;2023-02-19T04:52:47;95084.22;;;3.91;100.00
11099;BME280;12223;42.650;23.364;2023-02-19T04:55:15;95096.53;;;4.05;100.00
11099;BME280;12223;42.650;23.364;2023-02-19T04:57:42;95091.34;;;3.97;100.00
11099;BME280;12223;42.650;23.364;2023-02-19T05:00:10;95095.81;;;4.19;100.00
11099;BME280;12223;42.650;23.364;2023-02-19T05:02:37;95101.50;;;3.92;100.00
11099;BME280;12223;42.650;23.364;2023-02-19T05:05:04;95102.75;;;4.04;100.00
11099;BME280;12223;42.650;23.364;2023-02-19T05:07:31;95098.22;;;4.29;100.00
11099;BME280;12223;42.650;23.364;2023-02-19T05:09:58;95098.22;;;4.29;100.00
11099;BME280;12223;42.650;23.364;2023-02-19T05:12:28;95099.94;;;4.36;100.00
11099;BME280;12223;42.650;23.364;2023-02-19T05:14:55;95105.97;;;4.37;100.00
11099;BME280;12223;42.650;23.364;2023-02-19T05:17:22;95108.72;;;4.43;100.00
11099;BME280;12223;42.650;23.364;2023-02-19T05:19:48;95115.00;;;4.34;100.00
11099;BME280;12223;42.650;23.364;2023-02-19T05:22:15;95102.25;;;4.31;100.00
11099;BME280;12223;42.650;23.364;2023-02-19T05:24:42;95108.84;;;4.27;100.00
11099;BME280;12223;42.650;23.364;2023-02-19T05:27:09;95113.56;;;4.55;100.00
11099;BME280;12223;42.650;23.364;2023-02-19T05:29:37;95103.41;;;4.60;100.00
11099;BME280;12223;42.650;23.364;2023-02-19T05:32:04;95106.53;;;4.78;100.00
11099;BME280;12223;42.650;23.364;2023-02-19T05:34:31;95102.66;;;4.74;100.00
11099;BME280;12223;42.650;23.364;2023-02-19T05:36:57;95128.94;;;4.80;100.00
11099;BME280;12223;42.650;23.364;2023-02-19T05:39:24;95127.31;;;5.17;100.00
11099;BME280;12223;42.650;23.364;2023-02-19T05:41:51;95121.97;;;5.10;100.00
11099;BME280;12223;42.650;23.364;2023-02-19T05:44:18;95123.66;;;5.70;99.26
11099;BME280;12223;42.650;23.364;2023-02-19T05:46:46;95128.09;;;6.14;94.75
11099;BME280;12223;42.650;23.364;2023-02-19T05:49:12;95133.19;;;6.51;89.87
11099;BME280;12223;42.650;23.364;2023-02-19T05:51:39;95121.44;;;6.90;84.92
11099;BME280;12223;42.650;23.364;2023-02-19T05:54:06;95126.56;;;7.19;82.57
11099;BME280;12223;42.650;23.364;2023-02-19T05:56:34;95127.25;;;7.90;75.99
11099;BME280;12223;42.650;23.364;2023-02-19T05:59:03;95113.59;;;8.55;70.51
11099;BME280;12223;42.650;23.364;2023-02-19T06:01:32;95127.28;;;9.38;65.26
11099;BME280;12223;42.650;23.364;2023-02-19T06:04:01;95133.69;;;10.07;60.43
11099;BME280;12223;42.650;23.364;2023-02-19T06:06:28;95134.19;;;10.56;55.34
11099;BME280;12223;42.650;23.364;2023-02-19T06:08:55;95136.47;;;11.15;54.50
11099;BME280;12223;42.650;23.364;2023-02-19T06:11:22;95151.31;;;12.33;49.98
11099;BME280;12223;42.650;23.364;2023-02-19T06:13:49;95149.44;;;12.88;47.91
11099;BME280;12223;42.650;23.364;2023-02-19T06:16:17;95143.16;;;13.31;45.90
11099;BME280;12223;42.650;23.364;2023-02-19T06:18:45;95145.00;;;13.31;45.32
11099;BME280;12223;42.650;23.364;2023-02-19T06:21:14;95118.91;;;13.16;45.54
11099;BME280;12223;42.650;23.364;2023-02-19T06:23:42;95147.31;;;13.09;44.93
11099;BME280;12223;42.650;23.364;2023-02-19T06:26:11;95149.69;;;12.69;46.46
11099;BME280;12223;42.650;23.364;2023-02-19T06:28:40;95153.66;;;12.60;46.81
11099;BME280;12223;42.650;23.364;2023-02-19T06:31:08;95151.19;;;12.28;46.81
11099;BME280;12223;42.650;23.364;2023-02-19T06:33:36;95149.19;;;12.24;47.70
11099;BME280;12223;42.650;23.364;2023-02-19T06:36:06;95141.44;;;11.86;48.46
11099;BME280;12223;42.650;23.364;2023-02-19T06:38:34;95154.38;;;11.69;48.72
11099;BME280;12223;42.650;23.364;2023-02-19T06:41:02;95146.88;;;11.91;48.90
11099;BME280;12223;42.650;23.364;2023-02-19T06:43:30;95151.16;;;12.10;48.82
11099;BME280;12223;42.650;23.364;2023-02-19T06:45:57;95146.38;;;12.73;47.40
11099;BME280;12223;42.650;23.364;2023-02-19T06:48:24;95133.31;;;13.73;45.55
11099;BME280;12223;42.650;23.364;2023-02-19T06:50:51;95140.03;;;14.85;42.99
11099;BME280;12223;42.650;23.364;2023-02-19T06:53:18;95146.59;;;15.23;40.97
11099;BME280;12223;42.650;23.364;2023-02-19T06:55:55;95145.59;;;15.57;40.36
11099;BME280;12223;42.650;23.364;2023-02-19T06:58:22;95149.06;;;15.75;39.84
11099;BME280;12223;42.650;23.364;2023-02-19T07:00:49;95149.78;;;16.20;38.62
11099;BME280;12223;42.650;23.364;2023-02-19T07:03:16;95150.00;;;15.80;38.67
11099;BME280;12223;42.650;23.364;2023-02-19T07:05:42;95167.97;;;15.73;39.49
11099;BME280;12223;42.650;23.364;2023-02-19T07:08:09;95161.09;;;15.32;39.99
11099;BME280;12223;42.650;23.364;2023-02-19T07:10:36;95167.56;;;15.08;40.32
11099;BME280;12223;42.650;23.364;2023-02-19T07:13:04;95162.44;;;14.89;40.90
11099;BME280;12223;42.650;23.364;2023-02-19T07:15:31;95163.34;;;14.32;41.58
11099;BME280;12223;42.650;23.364;2023-02-19T07:17:58;95155.28;;;14.90;40.56
11099;BME280;12223;42.650;23.364;2023-02-19T07:20:25;95159.38;;;14.69;40.79
11099;BME280;12223;42.650;23.364;2023-02-19T07:22:52;95153.75;;;14.94;40.28
11099;BME280;12223;42.650;23.364;2023-02-19T07:25:19;95145.03;;;14.70;40.48
11099;BME280;12223;42.650;23.364;2023-02-19T07:27:46;95142.09;;;14.43;41.46
11099;BME280;12223;42.650;23.364;2023-02-19T07:30:14;95146.38;;;14.21;41.41
11099;BME280;12223;42.650;23.364;2023-02-19T07:32:41;95135.25;;;13.66;42.88
11099;BME280;12223;42.650;23.364;2023-02-19T07:35:10;95133.41;;;13.55;42.98
11099;BME280;12223;42.650;23.364;2023-02-19T07:37:36;95135.91;;;13.26;43.85
11099;BME280;12223;42.650;23.364;2023-02-19T07:40:04;95138.81;;;12.77;44.97
11099;BME280;12223;42.650;23.364;2023-02-19T07:42:31;95136.06;;;12.83;45.16
11099;BME280;12223;42.650;23.364;2023-02-19T07:44:58;95140.19;;;13.09;44.78
11099;BME280;12223;42.650;23.364;2023-02-19T07:47:27;95138.81;;;13.07;45.01
11099;BME280;12223;42.650;23.364;2023-02-19T07:49:54;95131.97;;;13.41;43.82
11099;BME280;12223;42.650;23.364;2023-02-19T07:52:21;95142.44;;;12.64;45.90
11099;BME280;12223;42.650;23.364;2023-02-19T07:54:47;95142.13;;;13.02;46.17
11099;BME280;12223;42.650;23.364;2023-02-19T07:57:14;95140.78;;;12.81;45.30
11099;BME280;12223;42.650;23.364;2023-02-19T07:59:41;95138.38;;;12.92;45.43
11099;BME280;12223;42.650;23.364;2023-02-19T08:02:14;95131.63;;;12.77;45.60
11099;BME280;12223;42.650;23.364;2023-02-19T08:05:00;95135.75;;;13.75;44.82
11099;BME280;12223;42.650;23.364;2023-02-19T08:07:30;95129.41;;;12.93;45.06
11099;BME280;12223;42.650;23.364;2023-02-19T08:09:57;95132.56;;;13.31;44.22
11099;BME280;12223;42.650;23.364;2023-02-19T08:12:54;95134.81;;;14.27;43.37
11099;BME280;12223;42.650;23.364;2023-02-19T08:15:38;95124.09;;;13.87;43.87
11099;BME280;12223;42.650;23.364;2023-02-19T08:18:05;95114.63;;;13.80;43.21
11099;BME280;12223;42.650;23.364;2023-02-19T08:20:33;95123.63;;;14.02;42.86
11099;BME280;12223;42.650;23.364;2023-02-19T08:23:00;95118.88;;;14.27;42.65
11099;BME280;12223;42.650;23.364;2023-02-19T08:25:27;95126.06;;;14.03;42.69
11099;BME280;12223;42.650;23.364;2023-02-19T08:27:53;95125.13;;;13.63;43.56
11099;BME280;12223;42.650;23.364;2023-02-19T08:30:20;95117.84;;;13.70;43.77
11099;BME280;12223;42.650;23.364;2023-02-19T08:32:47;95116.69;;;13.66;43.91
11099;BME280;12223;42.650;23.364;2023-02-19T08:35:14;95118.66;;;13.59;43.99
11099;BME280;12223;42.650;23.364;2023-02-19T08:37:42;95115.25;;;13.28;44.45
11099;BME280;12223;42.650;23.364;2023-02-19T08:40:10;95118.06;;;13.80;43.75
11099;BME280;12223;42.650;23.364;2023-02-19T08:42:37;95134.31;;;13.37;44.34
11099;BME280;12223;42.650;23.364;2023-02-19T08:45:04;95106.75;;;13.61;44.27
11099;BME280;12223;42.650;23.364;2023-02-19T08:47:33;95111.81;;;13.40;44.35
11099;BME280;12223;42.650;23.364;2023-02-19T08:50:00;95097.34;;;13.12;44.87
11099;BME280;12223;42.650;23.364;2023-02-19T08:52:27;95097.72;;;13.27;44.48
11099;BME280;12223;42.650;23.364;2023-02-19T08:54:55;95098.31;;;13.41;44.83
11099;BME280;12223;42.650;23.364;2023-02-19T08:57:22;95094.72;;;13.36;44.71
11099;BME280;12223;42.650;23.364;2023-02-19T08:59:49;95099.16;;;13.77;44.28
11099;BME280;12223;42.650;23.364;2023-02-19T09:02:16;95090.63;;;13.75;44.12
11099;BME280;12223;42.650;23.364;2023-02-19T09:04:42;95089.34;;;13.89;44.10
11099;BME280;12223;42.650;23.364;2023-02-19T09:07:11;95077.09;;;13.99;44.02
11099;BME280;12223;42.650;23.364;2023-02-19T09:09:38;95071.09;;;14.16;44.03
11099;BME280;12223;42.650;23.364;2023-02-19T09:12:08;95079.16;;;14.61;43.50
11099;BME280;12223;42.650;23.364;2023-02-19T09:14:36;95067.66;;;14.83;43.41
11099;BME280;12223;42.650;23.364;2023-02-19T09:17:04;95064.66;;;15.25;42.80
11099;BME280;12223;42.650;23.364;2023-02-19T09:19:32;95064.41;;;15.43;41.57
11099;BME280;12223;42.650;23.364;2023-02-19T09:21:59;95060.63;;;15.39;41.87
11099;BME280;12223;42.650;23.364;2023-02-19T09:24:26;95053.56;;;15.61;41.43
11099;BME280;12223;42.650;23.364;2023-02-19T09:26:53;95055.19;;;15.01;42.16
11099;BME280;12223;42.650;23.364;2023-02-19T09:29:23;95059.25;;;15.20;41.86
11099;BME280;12223;42.650;23.364;2023-02-19T09:31:54;95063.81;;;15.53;41.45
11099;BME280;12223;42.650;23.364;2023-02-19T09:34:22;95070.56;;;15.77;40.79
11099;BME280;12223;42.650;23.364;2023-02-19T09:36:49;95056.81;;;16.02;40.25
11099;BME280;12223;42.650;23.364;2023-02-19T09:39:16;95067.84;;;16.11;40.00
11099;BME280;12223;42.650;23.364;2023-02-19T09:41:45;95053.53;;;15.78;40.19
11099;BME280;12223;42.650;23.364;2023-02-19T09:44:19;95039.34;;;15.56;40.41
11099;BME280;12223;42.650;23.364;2023-02-19T09:46:49;95053.69;;;15.88;40.43
11099;BME280;12223;42.650;23.364;2023-02-19T09:49:27;95056.50;;;16.20;39.86
11099;BME280;12223;42.650;23.364;2023-02-19T09:51:58;95060.47;;;16.39;38.95
11099;BME280;12223;42.650;23.364;2023-02-19T09:54:30;95040.19;;;16.38;39.01
11099;BME280;12223;42.650;23.364;2023-02-19T09:57:00;95047.72;;;16.63;38.43
11099;BME280;12223;42.650;23.364;2023-02-19T09:59:29;95028.94;;;16.75;38.35
11099;BME280;12223;42.650;23.364;2023-02-19T10:02:02;95022.69;;;16.91;38.19
11099;BME280;12223;42.650;23.364;2023-02-19T10:04:30;95018.56;;;17.05;38.22
11099;BME280;12223;42.650;23.364;2023-02-19T10:06:57;95011.00;;;17.29;37.20
11099;BME280;12223;42.650;23.364;2023-02-19T10:09:29;95008.75;;;17.16;37.13
11099;BME280;12223;42.650;23.364;2023-02-19T10:11:57;94972.66;;;16.76;37.73
11099;BME280;12223;42.650;23.364;2023-02-19T10:14:29;95006.63;;;16.37;38.11
11099;BME280;12223;42.650;23.364;2023-02-19T10:17:03;94992.03;;;16.45;38.15
11099;BME280;12223;42.650;23.364;2023-02-19T10:19:31;94983.72;;;16.63;37.94
11099;BME280;12223;42.650;23.364;2023-02-19T10:21:59;94982.19;;;16.45;38.55
11099;BME280;12223;42.650;23.364;2023-02-19T10:24:28;94981.94;;;16.25;38.87
11099;BME280;12223;42.650;23.364;2023-02-19T10:26:56;94961.94;;;16.01;38.64
11099;BME280;12223;42.650;23.364;2023-02-19T10:29:23;94965.94;;;16.25;38.39
11099;BME280;12223;42.650;23.364;2023-02-19T10:32:14;94969.38;;;16.42;38.16
11099;BME280;12223;42.650;23.364;2023-02-19T10:34:42;94968.94;;;15.85;38.61
11099;BME280;12223;42.650;23.364;2023-02-19T10:37:13;94962.50;;;15.09;39.79
11099;BME280;12223;42.650;23.364;2023-02-19T10:39:42;94956.69;;;15.29;39.76
11099;BME280;12223;42.650;23.364;2023-02-19T10:42:16;94943.28;;;15.57;39.55
11099;BME280;12223;42.650;23.364;2023-02-19T10:44:45;94947.06;;;15.61;39.26
11099;BME280;12223;42.650;23.364;2023-02-19T10:47:20;94940.00;;;15.94;39.05
11099;BME280;12223;42.650;23.364;2023-02-19T10:49:49;94937.84;;;15.91;39.13
11099;BME280;12223;42.650;23.364;2023-02-19T10:52:20;94928.06;;;15.96;38.52
11099;BME280;12223;42.650;23.364;2023-02-19T10:54:50;94927.63;;;15.83;38.67
11099;BME280;12223;42.650;23.364;2023-02-19T10:57:24;94927.03;;;15.97;38.38
11099;BME280;12223;42.650;23.364;2023-02-19T10:59:56;94920.00;;;16.13;38.46
11099;BME280;12223;42.650;23.364;2023-02-19T11:02:24;94916.22;;;16.09;37.94
11099;BME280;12223;42.650;23.364;2023-02-19T11:07:46;94903.94;;;16.08;38.15
11099;BME280;12223;42.650;23.364;2023-02-19T11:10:24;94888.03;;;16.40;37.86
11099;BME280;12223;42.650;23.364;2023-02-19T11:12:54;94892.13;;;16.53;37.64
11099;BME280;12223;42.650;23.364;2023-02-19T11:15:24;94886.78;;;16.74;36.81
11099;BME280;12223;42.650;23.364;2023-02-19T11:18:03;94882.34;;;16.90;36.95
11099;BME280;12223;42.650;23.364;2023-02-19T11:20:31;94858.28;;;16.80;36.71
11099;BME280;12223;42.650;23.364;2023-02-19T11:23:10;94869.44;;;16.77;36.82
11099;BME280;12223;42.650;23.364;2023-02-19T11:25:44;94863.00;;;16.73;36.95
11099;BME280;12223;42.650;23.364;2023-02-19T11:28:23;94862.00;;;16.79;36.36
11099;BME280;12223;42.650;23.364;2023-02-19T11:30:52;94855.06;;;16.83;36.48
11099;BME280;12223;42.650;23.364;2023-02-19T11:33:25;94853.47;;;16.82;36.32
11099;BME280;12223;42.650;23.364;2023-02-19T11:36:23;94854.03;;;16.84;36.51
11099;BME280;12223;42.650;23.364;2023-02-19T11:38:51;94836.94;;;16.80;36.47
11099;BME280;12223;42.650;23.364;2023-02-19T11:41:24;94842.06;;;16.92;36.63
11099;BME280;12223;42.650;23.364;2023-02-19T11:44:06;94836.69;;;16.81;36.20
11099;BME280;12223;42.650;23.364;2023-02-19T11:46:42;94828.00;;;17.01;36.23
11099;BME280;12223;42.650;23.364;2023-02-19T11:49:22;94822.19;;;17.09;35.75
11099;BME280;12223;42.650;23.364;2023-02-19T11:52:06;94817.25;;;16.91;35.99
11099;BME280;12223;42.650;23.364;2023-02-19T11:54:46;94822.78;;;16.79;36.14
11099;BME280;12223;42.650;23.364;2023-02-19T11:57:24;94819.56;;;16.77;36.30
11099;BME280;12223;42.650;23.364;2023-02-19T12:00:02;94802.53;;;16.83;36.20
11099;BME280;12223;42.650;23.364;2023-02-19T12:02:47;94795.97;;;17.01;35.95
11099;BME280;12223;42.650;23.364;2023-02-19T12:05:42;94800.03;;;17.09;35.96
11099;BME280;12223;42.650;23.364;2023-02-19T12:08:36;94790.16;;;17.09;35.90
11099;BME280;12223;42.650;23.364;2023-02-19T12:11:37;94789.44;;;17.29;35.60
11099;BME280;12223;42.650;23.364;2023-02-19T12:14:30;94782.00;;;17.31;35.45
11099;BME280;12223;42.650;23.364;2023-02-19T12:17:06;94786.84;;;17.44;35.27
11099;BME280;12223;42.650;23.364;2023-02-19T12:19:54;94769.25;;;17.48;35.24
11099;BME280;12223;42.650;23.364;2023-02-19T12:22:29;94763.66;;;17.60;35.24
11099;BME280;12223;42.650;23.364;2023-02-19T12:25:28;94763.19;;;17.63;34.71
11099;BME280;12223;42.650;23.364;2023-02-19T12:28:19;94748.69;;;17.59;35.20
11099;BME280;12223;42.650;23.364;2023-02-19T12:31:02;94748.78;;;17.64;34.99
11099;BME280;12223;42.650;23.364;2023-02-19T12:33:45;94748.25;;;17.77;35.06
11099;BME280;12223;42.650;23.364;2023-02-19T12:36:20;94734.91;;;17.82;34.44
11099;BME280;12223;42.650;23.364;2023-02-19T12:38:57;94730.63;;;17.76;34.86
11099;BME280;12223;42.650;23.364;2023-02-19T12:41:36;94731.94;;;17.84;34.74
11099;BME280;12223;42.650;23.364;2023-02-19T12:44:10;94731.97;;;17.99;34.22
11099;BME280;12223;42.650;23.364;2023-02-19T12:46:41;94731.44;;;17.97;34.17
11099;BME280;12223;42.650;23.364;2023-02-19T12:49:12;94728.00;;;18.01;33.78
11099;BME280;12223;42.650;23.364;2023-02-19T12:51:43;94723.13;;;17.83;34.13
11099;BME280;12223;42.650;23.364;2023-02-19T12:54:16;94717.00;;;17.88;33.84
11099;BME280;12223;42.650;23.364;2023-02-19T12:56:50;94707.69;;;17.95;34.05
11099;BME280;12223;42.650;23.364;2023-02-19T12:59:22;94706.84;;;17.90;33.72
11099;BME280;12223;42.650;23.364;2023-02-19T13:01:55;94695.09;;;17.81;33.90
11099;BME280;12223;42.650;23.364;2023-02-19T13:04:30;94684.97;;;17.88;34.14
11099;BME280;12223;42.650;23.364;2023-02-19T13:07:04;94683.34;;;17.77;34.22
11099;BME280;12223;42.650;23.364;2023-02-19T13:09:38;94687.63;;;17.93;33.36
11099;BME280;12223;42.650;23.364;2023-02-19T13:12:10;94681.47;;;17.97;32.61
11099;BME280;12223;42.650;23.364;2023-02-19T13:14:41;94685.47;;;18.05;32.39
11099;BME280;12223;42.650;23.364;2023-02-19T13:17:19;94682.81;;;18.05;32.57